PWSweather.com
Personal Weather Stations
Station Observations
WATERF01
WaterfordIE

WaterfordIE

Lat: 52.2412507, Lon: -7.1414691

Elevation: 65

Station Type: Davis Vantage Vue

www.waterfordweather.com

High Low Average
Temperature 48.8°F9.3°C 38.0°F3.3°C 45.4°F7.4°C
Dew Point 48.5°F9.2°C 37.7°F3.2°C 45.1°F7.3°C
Winds 19.6 mph 31.5 kmh Calm Calm 10.0 mph S16.1 kmh S
Wind Gusts 32.2 mph51.8 kmh -- 15.0 mph24.1 kmh
Humidity 100% 97% 99%
Pressure 29.81 in1009.5 mb 29.31 in992.6 mb -
Precipitation 0.34 in8.6 mm - -
Hour Temp Dew Point Humidity Winds Wind Gusts Pressure Precip Precip Rate Daily Precip Total
12:00 AM 42.5°F5.8°C 42.5°F5.8°C 100% 13.8 mph SSE22.2 kmh SSE 20.7 mph33.3 kmh 29.81 in1009.5 mb - 0.00 in0.0 mm 0.00 in0.0 mm
12:10 AM 42.5°F5.8°C 42.5°F5.8°C 100% 12.7 mph SE20.4 kmh SE 20.7 mph33.3 kmh 29.81 in1009.5 mb - 0.00 in0.0 mm 0.00 in0.0 mm
12:20 AM 42.5°F5.8°C 42.5°F5.8°C 100% 10.4 mph SSE16.7 kmh SSE 16.1 mph25.9 kmh 29.80 in1009.1 mb - 0.00 in0.0 mm 0.00 in0.0 mm
12:30 AM 42.7°F5.9°C 42.7°F5.9°C 100% 11.5 mph SE18.5 kmh SE 18.4 mph29.6 kmh 29.79 in1008.8 mb - 0.00 in0.0 mm 0.00 in0.0 mm
12:40 AM 42.9°F6.1°C 42.9°F6.1°C 100% 9.2 mph SE14.8 kmh SE 15.0 mph24.1 kmh 29.79 in1008.8 mb - 0.00 in0.0 mm 0.00 in0.0 mm
12:50 AM 43.1°F6.2°C 43.1°F6.2°C 100% 9.2 mph SSE14.8 kmh SSE 13.8 mph22.2 kmh 29.79 in1008.8 mb - 0.00 in0.0 mm 0.00 in0.0 mm
01:00 AM 43.3°F6.3°C 42.8°F6.0°C 98% 13.8 mph S22.2 kmh S 16.1 mph25.9 kmh 29.78 in1008.5 mb - 0.00 in0.0 mm 0.00 in0.0 mm
01:10 AM 43.3°F6.3°C 42.8°F6.0°C 98% 10.4 mph SSE16.7 kmh SSE 15.0 mph24.1 kmh 29.78 in1008.5 mb - 0.00 in0.0 mm 0.00 in0.0 mm
01:20 AM 43.7°F6.5°C 43.2°F6.2°C 98% 12.7 mph SE20.4 kmh SE 18.4 mph29.6 kmh 29.77 in1008.1 mb - 0.00 in0.0 mm 0.00 in0.0 mm
01:30 AM 43.9°F6.6°C 43.4°F6.3°C 98% 10.4 mph SE16.7 kmh SE 13.8 mph22.2 kmh 29.77 in1008.1 mb - 0.00 in0.0 mm 0.00 in0.0 mm
01:40 AM 44.2°F6.8°C 43.7°F6.5°C 98% 12.7 mph SE20.4 kmh SE 18.4 mph29.6 kmh 29.76 in1007.8 mb - 0.00 in0.0 mm 0.00 in0.0 mm
01:50 AM 44.4°F6.9°C 44.2°F6.8°C 99% 11.5 mph SE18.5 kmh SE 16.1 mph25.9 kmh 29.74 in1007.1 mb - 0.00 in0.0 mm 0.00 in0.0 mm
02:00 AM 44.5°F6.9°C 44.5°F6.9°C 100% 13.8 mph SE22.2 kmh SE 23.0 mph37.0 kmh 29.74 in1007.1 mb - 0.00 in0.0 mm 0.00 in0.0 mm
02:10 AM 44.6°F7.0°C 44.6°F7.0°C 100% 11.5 mph SE18.5 kmh SE 20.7 mph33.3 kmh 29.73 in1006.8 mb - 0.00 in0.0 mm 0.00 in0.0 mm
02:20 AM 44.5°F6.9°C 44.5°F6.9°C 100% 10.4 mph SSE16.7 kmh SSE 13.8 mph22.2 kmh 29.73 in1006.8 mb - 0.01 in0.3 mm 0.01 in0.3 mm
02:30 AM 44.4°F6.9°C 44.4°F6.9°C 100% 10.4 mph SE16.7 kmh SE 18.4 mph29.6 kmh 29.72 in1006.4 mb - 0.00 in0.0 mm 0.01 in0.3 mm
02:40 AM 44.4°F6.9°C 44.4°F6.9°C 100% 13.8 mph SE22.2 kmh SE 21.9 mph35.2 kmh 29.72 in1006.4 mb - 0.00 in0.0 mm 0.01 in0.3 mm
02:50 AM 44.3°F6.8°C 44.3°F6.8°C 100% 11.5 mph SE18.5 kmh SE 16.1 mph25.9 kmh 29.71 in1006.1 mb - 0.00 in0.0 mm 0.01 in0.3 mm
03:00 AM 44.4°F6.9°C 44.4°F6.9°C 100% 12.7 mph SE20.4 kmh SE 16.1 mph25.9 kmh 29.71 in1006.1 mb - 0.00 in0.0 mm 0.01 in0.3 mm
03:10 AM 44.5°F6.9°C 44.5°F6.9°C 100% 12.7 mph SE20.4 kmh SE 20.7 mph33.3 kmh 29.71 in1006.1 mb - 0.00 in0.0 mm 0.01 in0.3 mm
03:20 AM 44.6°F7.0°C 44.6°F7.0°C 100% 12.7 mph SSE20.4 kmh SSE 16.1 mph25.9 kmh 29.70 in1005.8 mb - 0.00 in0.0 mm 0.01 in0.3 mm
03:30 AM 44.8°F7.1°C 44.8°F7.1°C 100% 12.7 mph SE20.4 kmh SE 16.1 mph25.9 kmh 29.70 in1005.8 mb - 0.00 in0.0 mm 0.01 in0.3 mm
03:40 AM 45.1°F7.3°C 45.1°F7.3°C 100% 16.1 mph SE25.9 kmh SE 21.9 mph35.2 kmh 29.70 in1005.8 mb - 0.00 in0.0 mm 0.01 in0.3 mm
03:50 AM 45.0°F7.2°C 45.0°F7.2°C 100% 13.8 mph SE22.2 kmh SE 21.9 mph35.2 kmh 29.69 in1005.4 mb - 0.00 in0.0 mm 0.01 in0.3 mm
04:00 AM 45.1°F7.3°C 45.1°F7.3°C 100% 15.0 mph SE24.1 kmh SE 21.9 mph35.2 kmh 29.68 in1005.1 mb - 0.01 in0.3 mm 0.02 in0.5 mm
04:10 AM 45.5°F7.5°C 45.5°F7.5°C 100% 13.8 mph SE22.2 kmh SE 20.7 mph33.3 kmh 29.68 in1005.1 mb - 0.01 in0.3 mm 0.02 in0.5 mm
04:20 AM 45.6°F7.6°C 45.6°F7.6°C 100% 13.8 mph SE22.2 kmh SE 26.5 mph42.6 kmh 29.67 in1004.7 mb - 0.00 in0.0 mm 0.02 in0.5 mm
04:30 AM 45.8°F7.7°C 45.8°F7.7°C 100% 15.0 mph SSE24.1 kmh SSE 19.6 mph31.5 kmh 29.67 in1004.7 mb - 0.00 in0.0 mm 0.02 in0.5 mm
04:40 AM 45.9°F7.7°C 45.9°F7.7°C 100% 11.5 mph SE18.5 kmh SE 20.7 mph33.3 kmh 29.66 in1004.4 mb - 0.00 in0.0 mm 0.02 in0.5 mm
04:50 AM 46.1°F7.8°C 46.1°F7.8°C 100% 12.7 mph SE20.4 kmh SE 15.0 mph24.1 kmh 29.65 in1004.1 mb - 0.00 in0.0 mm 0.02 in0.5 mm
05:00 AM 46.3°F7.9°C 46.3°F7.9°C 100% 11.5 mph SE18.5 kmh SE 16.1 mph25.9 kmh 29.64 in1003.7 mb - 0.00 in0.0 mm 0.02 in0.5 mm
05:10 AM 46.5°F8.1°C 46.5°F8.1°C 100% 15.0 mph SE24.1 kmh SE 21.9 mph35.2 kmh 29.64 in1003.7 mb - 0.00 in0.0 mm 0.02 in0.5 mm
05:20 AM 46.6°F8.1°C 46.6°F8.1°C 100% 11.5 mph SE18.5 kmh SE 16.1 mph25.9 kmh 29.63 in1003.4 mb - 0.00 in0.0 mm 0.02 in0.5 mm
05:30 AM 46.6°F8.1°C 46.6°F8.1°C 100% 12.7 mph SE20.4 kmh SE 25.3 mph40.7 kmh 29.62 in1003.0 mb - 0.00 in0.0 mm 0.02 in0.5 mm
05:40 AM 46.7°F8.2°C 46.7°F8.2°C 100% 12.7 mph SE20.4 kmh SE 19.6 mph31.5 kmh 29.61 in1002.7 mb - 0.00 in0.0 mm 0.02 in0.5 mm
05:50 AM 46.7°F8.2°C 46.7°F8.2°C 100% 17.3 mph SE27.8 kmh SE 21.9 mph35.2 kmh 29.61 in1002.7 mb - 0.00 in0.0 mm 0.02 in0.5 mm
06:00 AM 46.8°F8.2°C 46.8°F8.2°C 100% 11.5 mph SE18.5 kmh SE 16.1 mph25.9 kmh 29.61 in1002.7 mb - 0.00 in0.0 mm 0.02 in0.5 mm
06:10 AM 46.8°F8.2°C 46.8°F8.2°C 100% 12.7 mph S20.4 kmh S 15.0 mph24.1 kmh 29.61 in1002.7 mb - 0.00 in0.0 mm 0.02 in0.5 mm
06:20 AM 46.8°F8.2°C 46.5°F8.1°C 99% 15.0 mph SSE24.1 kmh SSE 19.6 mph31.5 kmh 29.60 in1002.4 mb - 0.00 in0.0 mm 0.02 in0.5 mm
06:30 AM 46.7°F8.2°C 46.2°F7.9°C 98% 11.5 mph S18.5 kmh S 16.1 mph25.9 kmh 29.59 in1002.0 mb - 0.00 in0.0 mm 0.02 in0.5 mm
06:40 AM 46.8°F8.2°C 46.5°F8.1°C 99% 16.1 mph SSE25.9 kmh SSE 19.6 mph31.5 kmh 29.59 in1002.0 mb - 0.00 in0.0 mm 0.02 in0.5 mm
06:50 AM 46.9°F8.3°C 46.6°F8.1°C 99% 12.7 mph S20.4 kmh S 20.7 mph33.3 kmh 29.59 in1002.0 mb - 0.00 in0.0 mm 0.02 in0.5 mm
07:00 AM 46.8°F8.2°C 46.5°F8.1°C 99% 12.7 mph SSE20.4 kmh SSE 21.9 mph35.2 kmh 29.58 in1001.7 mb - 0.00 in0.0 mm 0.02 in0.5 mm
07:10 AM 46.7°F8.2°C 46.7°F8.2°C 100% 11.5 mph SSE18.5 kmh SSE 16.1 mph25.9 kmh 29.58 in1001.7 mb - 0.00 in0.0 mm 0.02 in0.5 mm
07:20 AM 46.8°F8.2°C 46.8°F8.2°C 100% 13.8 mph SSE22.2 kmh SSE 18.4 mph29.6 kmh 29.57 in1001.4 mb - 0.00 in0.0 mm 0.02 in0.5 mm
07:30 AM 46.7°F8.2°C 46.7°F8.2°C 100% 13.8 mph SSE22.2 kmh SSE 19.6 mph31.5 kmh 29.57 in1001.4 mb - 0.01 in0.3 mm 0.03 in0.8 mm
07:40 AM 46.6°F8.1°C 46.6°F8.1°C 100% 15.0 mph SSE24.1 kmh SSE 25.3 mph40.7 kmh 29.57 in1001.4 mb - 0.00 in0.0 mm 0.03 in0.8 mm
07:50 AM 46.7°F8.2°C 46.7°F8.2°C 100% 12.7 mph SSE20.4 kmh SSE 19.6 mph31.5 kmh 29.57 in1001.4 mb - 0.00 in0.0 mm 0.03 in0.8 mm
08:00 AM 46.9°F8.3°C 46.9°F8.3°C 100% 12.7 mph SSE20.4 kmh SSE 16.1 mph25.9 kmh 29.56 in1001.0 mb - 0.00 in0.0 mm 0.03 in0.8 mm
08:10 AM 46.9°F8.3°C 46.9°F8.3°C 100% 15.0 mph SE24.1 kmh SE 21.9 mph35.2 kmh 29.55 in1000.7 mb - 0.00 in0.0 mm 0.03 in0.8 mm
08:20 AM 46.5°F8.1°C 46.5°F8.1°C 100% 17.3 mph SE27.8 kmh SE 26.5 mph42.6 kmh 29.55 in1000.7 mb - 0.01 in0.3 mm 0.04 in1.0 mm
08:30 AM 46.3°F7.9°C 46.3°F7.9°C 100% 16.1 mph SE25.9 kmh SE 25.3 mph40.7 kmh 29.54 in1000.3 mb - 0.00 in0.0 mm 0.04 in1.0 mm
08:40 AM 46.3°F7.9°C 46.3°F7.9°C 100% 13.8 mph SE22.2 kmh SE 19.6 mph31.5 kmh 29.54 in1000.3 mb - 0.00 in0.0 mm 0.04 in1.0 mm
08:50 AM 46.2°F7.9°C 46.2°F7.9°C 100% 15.0 mph SE24.1 kmh SE 24.2 mph38.9 kmh 29.53 in1000.0 mb - 0.00 in0.0 mm 0.04 in1.0 mm
09:00 AM 46.1°F7.8°C 46.1°F7.8°C 100% 13.8 mph SE22.2 kmh SE 20.7 mph33.3 kmh 29.52 in999.7 mb - 0.00 in0.0 mm 0.04 in1.0 mm
09:10 AM 46.0°F7.8°C 46.0°F7.8°C 100% 10.4 mph SE16.7 kmh SE 18.4 mph29.6 kmh 29.52 in999.7 mb - 0.00 in0.0 mm 0.04 in1.0 mm
09:20 AM 46.0°F7.8°C 46.0°F7.8°C 100% 11.5 mph SE18.5 kmh SE 16.1 mph25.9 kmh 29.52 in999.7 mb - 0.00 in0.0 mm 0.04 in1.0 mm
09:30 AM 46.1°F7.8°C 46.1°F7.8°C 100% 12.7 mph SE20.4 kmh SE 16.1 mph25.9 kmh 29.51 in999.3 mb - 0.00 in0.0 mm 0.04 in1.0 mm
09:40 AM 46.2°F7.9°C 46.2°F7.9°C 100% 17.3 mph SE27.8 kmh SE 20.7 mph33.3 kmh 29.50 in999.0 mb - 0.00 in0.0 mm 0.04 in1.0 mm
09:50 AM 46.3°F7.9°C 46.3°F7.9°C 100% 11.5 mph SE18.5 kmh SE 20.7 mph33.3 kmh 29.50 in999.0 mb - 0.00 in0.0 mm 0.04 in1.0 mm
10:00 AM 46.5°F8.1°C 46.5°F8.1°C 100% 15.0 mph SSE24.1 kmh SSE 21.9 mph35.2 kmh 29.50 in999.0 mb - 0.00 in0.0 mm 0.04 in1.0 mm
10:10 AM 46.5°F8.1°C 46.2°F7.9°C 99% 15.0 mph SSE24.1 kmh SSE 20.7 mph33.3 kmh 29.49 in998.6 mb - 0.00 in0.0 mm 0.04 in1.0 mm
10:20 AM 46.5°F8.1°C 46.0°F7.8°C 98% 16.1 mph SE25.9 kmh SE 25.3 mph40.7 kmh 29.49 in998.6 mb - 0.00 in0.0 mm 0.04 in1.0 mm
10:30 AM 46.6°F8.1°C 46.1°F7.8°C 98% 16.1 mph SE25.9 kmh SE 19.6 mph31.5 kmh 29.48 in998.3 mb - 0.00 in0.0 mm 0.04 in1.0 mm
10:40 AM 46.7°F8.2°C 46.4°F8.0°C 99% 15.0 mph SE24.1 kmh SE 18.4 mph29.6 kmh 29.48 in998.3 mb - 0.00 in0.0 mm 0.04 in1.0 mm
10:50 AM 46.7°F8.2°C 46.2°F7.9°C 98% 16.1 mph SE25.9 kmh SE 26.5 mph42.6 kmh 29.47 in998.0 mb - 0.00 in0.0 mm 0.04 in1.0 mm
11:00 AM 46.8°F8.2°C 46.0°F7.8°C 97% 17.3 mph SSE27.8 kmh SSE 26.5 mph42.6 kmh 29.47 in998.0 mb - 0.00 in0.0 mm 0.04 in1.0 mm
11:10 AM 47.0°F8.3°C 46.2°F7.9°C 97% 15.0 mph SSE24.1 kmh SSE 21.9 mph35.2 kmh 29.47 in998.0 mb - 0.00 in0.0 mm 0.04 in1.0 mm
11:20 AM 47.1°F8.4°C 46.3°F7.9°C 97% 15.0 mph SE24.1 kmh SE 32.2 mph51.8 kmh 29.46 in997.6 mb - 0.00 in0.0 mm 0.04 in1.0 mm
11:30 AM 47.3°F8.5°C 46.5°F8.1°C 97% 15.0 mph SE24.1 kmh SE 21.9 mph35.2 kmh 29.45 in997.3 mb - 0.00 in0.0 mm 0.04 in1.0 mm
11:40 AM 47.6°F8.7°C 46.8°F8.2°C 97% 17.3 mph SE27.8 kmh SE 25.3 mph40.7 kmh 29.44 in997.0 mb - 0.00 in0.0 mm 0.04 in1.0 mm
11:50 AM 47.7°F8.7°C 46.9°F8.3°C 97% 15.0 mph S24.1 kmh S 19.6 mph31.5 kmh 29.43 in996.6 mb - 0.00 in0.0 mm 0.04 in1.0 mm
12:00 PM 47.9°F8.8°C 47.1°F8.4°C 97% 16.1 mph S25.9 kmh S 21.9 mph35.2 kmh 29.43 in996.6 mb - 0.00 in0.0 mm 0.04 in1.0 mm
12:10 PM 48.1°F8.9°C 47.3°F8.5°C 97% 18.4 mph SE29.6 kmh SE 25.3 mph40.7 kmh 29.42 in996.3 mb - 0.00 in0.0 mm 0.04 in1.0 mm
12:20 PM 48.3°F9.1°C 47.8°F8.8°C 98% 17.3 mph S27.8 kmh S 23.0 mph37.0 kmh 29.41 in995.9 mb - 0.00 in0.0 mm 0.04 in1.0 mm
12:30 PM 48.3°F9.1°C 48.0°F8.9°C 99% 13.8 mph S22.2 kmh S 19.6 mph31.5 kmh 29.41 in995.9 mb - 0.01 in0.3 mm 0.05 in1.3 mm
12:40 PM 48.2°F9.0°C 47.9°F8.8°C 99% 17.3 mph SSE27.8 kmh SSE 25.3 mph40.7 kmh 29.40 in995.6 mb - 0.01 in0.3 mm 0.06 in1.5 mm
12:50 PM 48.0°F8.9°C 47.7°F8.7°C 99% 15.0 mph SE24.1 kmh SE 25.3 mph40.7 kmh 29.39 in995.3 mb - 0.00 in0.0 mm 0.06 in1.5 mm
01:00 PM 47.9°F8.8°C 47.6°F8.7°C 99% 16.1 mph SSE25.9 kmh SSE 28.8 mph46.3 kmh 29.39 in995.3 mb - 0.01 in0.3 mm 0.07 in1.8 mm
01:10 PM 47.9°F8.8°C 47.6°F8.7°C 99% 16.1 mph S25.9 kmh S 21.9 mph35.2 kmh 29.38 in994.9 mb - 0.01 in0.3 mm 0.07 in1.8 mm
01:20 PM 48.0°F8.9°C 47.7°F8.7°C 99% 17.3 mph SSE27.8 kmh SSE 21.9 mph35.2 kmh 29.37 in994.6 mb - 0.01 in0.3 mm 0.08 in2.0 mm
01:30 PM 48.1°F8.9°C 47.8°F8.8°C 99% 17.3 mph SSE27.8 kmh SSE 26.5 mph42.6 kmh 29.36 in994.2 mb - 0.01 in0.3 mm 0.09 in2.3 mm
01:40 PM 48.1°F8.9°C 47.8°F8.8°C 99% 18.4 mph SE29.6 kmh SE 26.5 mph42.6 kmh 29.36 in994.2 mb - 0.01 in0.3 mm 0.10 in2.5 mm
01:50 PM 48.2°F9.0°C 47.9°F8.8°C 99% 16.1 mph SSE25.9 kmh SSE 21.9 mph35.2 kmh 29.35 in993.9 mb - 0.00 in0.0 mm 0.10 in2.5 mm
02:00 PM 48.2°F9.0°C 47.9°F8.8°C 99% 15.0 mph S24.1 kmh S 23.0 mph37.0 kmh 29.35 in993.9 mb - 0.01 in0.3 mm 0.11 in2.8 mm
02:10 PM 48.3°F9.1°C 48.0°F8.9°C 99% 17.3 mph SSE27.8 kmh SSE 25.3 mph40.7 kmh 29.34 in993.6 mb - 0.01 in0.3 mm 0.12 in3.0 mm
02:20 PM 48.3°F9.1°C 48.0°F8.9°C 99% 17.3 mph SSE27.8 kmh SSE 27.6 mph44.4 kmh 29.34 in993.6 mb - 0.00 in0.0 mm 0.12 in3.0 mm
02:30 PM 48.4°F9.1°C 48.1°F8.9°C 99% 16.1 mph SSE25.9 kmh SSE 23.0 mph37.0 kmh 29.33 in993.2 mb - 0.02 in0.5 mm 0.14 in3.6 mm
02:40 PM 48.5°F9.2°C 48.2°F9.0°C 99% 15.0 mph S24.1 kmh S 16.1 mph25.9 kmh 29.33 in993.2 mb - 0.01 in0.3 mm 0.15 in3.8 mm
02:50 PM 48.5°F9.2°C 48.2°F9.0°C 99% 19.6 mph SE31.5 kmh SE 27.6 mph44.4 kmh 29.32 in992.9 mb - 0.01 in0.3 mm 0.16 in4.1 mm
03:00 PM 48.6°F9.2°C 48.3°F9.1°C 99% 18.4 mph SSE29.6 kmh SSE 25.3 mph40.7 kmh 29.32 in992.9 mb - 0.01 in0.3 mm 0.17 in4.3 mm
03:10 PM 48.6°F9.2°C 48.3°F9.1°C 99% 18.4 mph SE29.6 kmh SE 19.6 mph31.5 kmh 29.31 in992.6 mb - 0.02 in0.5 mm 0.19 in4.8 mm
03:20 PM 48.7°F9.3°C 48.4°F9.1°C 99% 17.3 mph SE27.8 kmh SE 28.8 mph46.3 kmh 29.31 in992.6 mb - 0.01 in0.3 mm 0.20 in5.1 mm
03:30 PM 48.7°F9.3°C 48.4°F9.1°C 99% 18.4 mph SSE29.6 kmh SSE 26.5 mph42.6 kmh 29.31 in992.6 mb - 0.02 in0.5 mm 0.22 in5.6 mm
03:40 PM 48.8°F9.3°C 48.5°F9.2°C 99% 17.3 mph S27.8 kmh S 23.0 mph37.0 kmh 29.32 in992.9 mb - 0.07 in1.8 mm 0.29 in7.4 mm
03:50 PM 48.4°F9.1°C 48.2°F9.0°C 99% 15.0 mph SSW24.1 kmh SSW 19.6 mph31.5 kmh 29.32 in992.9 mb - 0.03 in0.8 mm 0.31 in7.9 mm
04:00 PM 47.2°F8.4°C 46.9°F8.3°C 99% 13.8 mph S22.2 kmh S 16.1 mph25.9 kmh 29.32 in992.9 mb - 0.01 in0.3 mm 0.32 in8.1 mm
04:10 PM 46.2°F7.9°C 46.0°F7.8°C 99% 6.9 mph S11.1 kmh S 11.5 mph18.5 kmh 29.33 in993.2 mb - 0.01 in0.3 mm 0.33 in8.4 mm
04:20 PM 45.9°F7.7°C 45.6°F7.6°C 99% 4.6 mph S7.4 kmh S 6.9 mph11.1 kmh 29.33 in993.2 mb - 0.01 in0.3 mm 0.34 in8.6 mm
04:30 PM 45.7°F7.6°C 45.5°F7.5°C 99% 5.8 mph SSW9.3 kmh SSW 8.1 mph13.0 kmh 29.33 in993.2 mb - 0.01 in0.3 mm 0.34 in8.6 mm
04:40 PM 45.8°F7.7°C 45.5°F7.5°C 99% 8.1 mph S13.0 kmh S 11.5 mph18.5 kmh 29.34 in993.6 mb - 0.00 in0.0 mm 0.34 in8.6 mm
04:50 PM 46.3°F7.9°C 46.0°F7.8°C 99% 5.8 mph SW9.3 kmh SW 8.1 mph13.0 kmh 29.34 in993.6 mb - 0.00 in0.0 mm 0.34 in8.6 mm
05:00 PM 46.9°F8.3°C 46.6°F8.1°C 99% 4.6 mph S7.4 kmh S 8.1 mph13.0 kmh 29.35 in993.9 mb - 0.00 in0.0 mm 0.34 in8.6 mm
05:10 PM 46.9°F8.3°C 46.6°F8.1°C 99% 3.5 mph S5.6 kmh S 6.9 mph11.1 kmh 29.35 in993.9 mb - 0.00 in0.0 mm 0.34 in8.6 mm
05:20 PM 46.8°F8.2°C 46.5°F8.1°C 99% 5.8 mph SW9.3 kmh SW 8.1 mph13.0 kmh 29.35 in993.9 mb - 0.00 in0.0 mm 0.34 in8.6 mm
05:30 PM 46.6°F8.1°C 46.3°F7.9°C 99% 6.9 mph WSW11.1 kmh WSW 9.2 mph14.8 kmh 29.35 in993.9 mb - 0.00 in0.0 mm 0.34 in8.6 mm
05:40 PM 46.4°F8.0°C 46.1°F7.8°C 99% 4.6 mph SW7.4 kmh SW 8.1 mph13.0 kmh 29.36 in994.2 mb - 0.00 in0.0 mm 0.34 in8.6 mm
05:50 PM 46.1°F7.8°C 45.8°F7.7°C 99% 3.5 mph SW5.6 kmh SW 8.1 mph13.0 kmh 29.36 in994.2 mb - 0.00 in0.0 mm 0.34 in8.6 mm
06:00 PM 45.9°F7.7°C 45.6°F7.6°C 99% 3.5 mph NW5.6 kmh NW 8.1 mph13.0 kmh 29.36 in994.2 mb - 0.00 in0.0 mm 0.34 in8.6 mm
06:10 PM 45.7°F7.6°C 45.4°F7.4°C 99% 3.5 mph W5.6 kmh W 6.9 mph11.1 kmh 29.37 in994.6 mb - 0.00 in0.0 mm 0.34 in8.6 mm
06:20 PM 45.6°F7.6°C 45.4°F7.4°C 99% 1.2 mph SW1.9 kmh SW 2.3 mph3.7 kmh 29.38 in994.9 mb - 0.00 in0.0 mm 0.34 in8.6 mm
06:30 PM 45.3°F7.4°C 45.0°F7.2°C 99% Calm Calm -- 29.38 in994.9 mb - 0.00 in0.0 mm 0.34 in8.6 mm
06:40 PM 45.0°F7.2°C 44.7°F7.1°C 99% Calm Calm -- 29.39 in995.3 mb - 0.00 in0.0 mm 0.34 in8.6 mm
06:50 PM 44.8°F7.1°C 44.5°F6.9°C 99% Calm Calm -- 29.40 in995.6 mb - 0.00 in0.0 mm 0.34 in8.6 mm
07:00 PM 44.5°F6.9°C 44.3°F6.8°C 99% Calm Calm -- 29.40 in995.6 mb - 0.00 in0.0 mm 0.34 in8.6 mm
07:10 PM 44.1°F6.7°C 43.8°F6.6°C 99% Calm Calm -- 29.41 in995.9 mb - 0.00 in0.0 mm 0.34 in8.6 mm
07:20 PM 43.3°F6.3°C 43.0°F6.1°C 99% Calm Calm -- 29.41 in995.9 mb - 0.00 in0.0 mm 0.34 in8.6 mm
07:30 PM 43.4°F6.3°C 43.1°F6.2°C 99% Calm Calm -- 29.41 in995.9 mb - 0.00 in0.0 mm 0.34 in8.6 mm
07:40 PM 43.1°F6.2°C 42.8°F6.0°C 99% Calm Calm -- 29.41 in995.9 mb - 0.00 in0.0 mm 0.34 in8.6 mm
07:50 PM 43.1°F6.2°C 42.8°F6.0°C 99% Calm Calm -- 29.41 in995.9 mb - 0.00 in0.0 mm 0.34 in8.6 mm
08:00 PM 43.4°F6.3°C 43.2°F6.2°C 99% 1.2 mph WNW1.9 kmh WNW 2.3 mph3.7 kmh 29.42 in996.3 mb - 0.00 in0.0 mm 0.34 in8.6 mm
08:10 PM 43.6°F6.4°C 43.4°F6.3°C 99% 1.2 mph W1.9 kmh W 2.3 mph3.7 kmh 29.42 in996.3 mb - 0.00 in0.0 mm 0.34 in8.6 mm
08:20 PM 43.6°F6.4°C 43.3°F6.3°C 99% 1.2 mph W1.9 kmh W 2.3 mph3.7 kmh 29.43 in996.6 mb - 0.00 in0.0 mm 0.34 in8.6 mm
08:30 PM 43.5°F6.4°C 43.2°F6.2°C 99% 2.3 mph WNW3.7 kmh WNW 4.6 mph7.4 kmh 29.43 in996.6 mb - 0.00 in0.0 mm 0.34 in8.6 mm
08:40 PM 43.3°F6.3°C 43.1°F6.2°C 99% 2.3 mph WSW3.7 kmh WSW 5.8 mph9.3 kmh 29.43 in996.6 mb - 0.00 in0.0 mm 0.34 in8.6 mm
08:50 PM 43.2°F6.2°C 42.9°F6.1°C 99% 3.5 mph WSW5.6 kmh WSW 6.9 mph11.1 kmh 29.44 in997.0 mb - 0.00 in0.0 mm 0.34 in8.6 mm
09:00 PM 43.2°F6.2°C 42.9°F6.1°C 99% Calm Calm 5.8 mph9.3 kmh 29.44 in997.0 mb - 0.00 in0.0 mm 0.34 in8.6 mm
09:10 PM 42.9°F6.1°C 42.6°F5.9°C 99% 2.3 mph W3.7 kmh W 4.6 mph7.4 kmh 29.44 in997.0 mb - 0.00 in0.0 mm 0.34 in8.6 mm
09:20 PM 42.7°F5.9°C 42.4°F5.8°C 99% Calm Calm 2.3 mph3.7 kmh 29.44 in997.0 mb - 0.00 in0.0 mm 0.34 in8.6 mm
09:30 PM 42.2°F5.7°C 42.0°F5.6°C 99% Calm Calm -- 29.44 in997.0 mb - 0.00 in0.0 mm 0.34 in8.6 mm
09:40 PM 42.2°F5.7°C 41.9°F5.5°C 99% 1.2 mph NW1.9 kmh NW 2.3 mph3.7 kmh 29.45 in997.3 mb - 0.00 in0.0 mm 0.34 in8.6 mm
09:50 PM 41.9°F5.5°C 41.6°F5.3°C 99% Calm Calm -- 29.45 in997.3 mb - 0.00 in0.0 mm 0.34 in8.6 mm
10:00 PM 41.0°F5.0°C 40.8°F4.9°C 99% Calm Calm -- 29.46 in997.6 mb - 0.00 in0.0 mm 0.34 in8.6 mm
10:10 PM 41.0°F5.0°C 40.7°F4.8°C 99% Calm Calm -- 29.46 in997.6 mb - 0.00 in0.0 mm 0.34 in8.6 mm
10:20 PM 41.1°F5.1°C 40.8°F4.9°C 99% 1.2 mph W1.9 kmh W 5.8 mph9.3 kmh 29.46 in997.6 mb - 0.00 in0.0 mm 0.34 in8.6 mm
10:30 PM 41.1°F5.1°C 40.8°F4.9°C 99% Calm Calm -- 29.47 in998.0 mb - 0.00 in0.0 mm 0.34 in8.6 mm
10:40 PM 40.8°F4.9°C 40.6°F4.8°C 99% Calm Calm -- 29.48 in998.3 mb - 0.00 in0.0 mm 0.34 in8.6 mm
10:50 PM 40.8°F4.9°C 40.5°F4.7°C 99% Calm Calm -- 29.47 in998.0 mb - 0.00 in0.0 mm 0.34 in8.6 mm
11:00 PM 40.5°F4.7°C 40.2°F4.6°C 99% Calm Calm -- 29.48 in998.3 mb - 0.00 in0.0 mm 0.34 in8.6 mm
11:10 PM 40.3°F4.6°C 40.0°F4.4°C 99% Calm Calm -- 29.48 in998.3 mb - 0.00 in0.0 mm 0.34 in8.6 mm
11:20 PM 38.8°F3.8°C 38.6°F3.7°C 99% Calm Calm -- 29.48 in998.3 mb - 0.00 in0.0 mm 0.34 in8.6 mm
11:30 PM 38.5°F3.6°C 38.2°F3.4°C 99% Calm Calm -- 29.48 in998.3 mb - 0.00 in0.0 mm 0.34 in8.6 mm
11:40 PM 38.2°F3.4°C 38.0°F3.3°C 99% Calm Calm -- 29.49 in998.6 mb - 0.00 in0.0 mm 0.34 in8.6 mm
11:50 PM 38.0°F3.3°C 37.7°F3.2°C 99% Calm Calm -- 29.49 in998.6 mb - 0.00 in0.0 mm 0.34 in8.6 mm